createdAt,value
2022-12-20T00:01:26.730Z,100901.25
2022-12-20T00:06:10.077Z,100906.92
2022-12-20T00:10:53.054Z,100905.48
2022-12-20T00:15:36.183Z,100903.63
2022-12-20T00:20:19.179Z,100907.19
2022-12-20T00:25:02.206Z,100904.85
2022-12-20T00:29:45.205Z,100899.84
2022-12-20T00:34:28.177Z,100894.63
2022-12-20T00:39:11.789Z,100887.34
2022-12-20T00:43:54.794Z,100885.64
2022-12-20T00:48:37.695Z,100895.86
2022-12-20T00:53:27.240Z,100902.3
2022-12-20T00:58:10.357Z,100895.27
2022-12-20T01:02:53.744Z,100901.09
2022-12-20T01:07:36.997Z,100895.32
2022-12-20T01:12:19.998Z,100902.73
2022-12-20T01:17:03.355Z,100897.2
2022-12-20T01:21:46.618Z,100902.08
2022-12-20T01:26:29.988Z,100904.23
2022-12-20T01:31:13.210Z,100910.49
2022-12-20T01:35:56.397Z,100880.69
2022-12-20T01:40:39.363Z,100878.5
2022-12-20T01:45:22.415Z,100874.91
2022-12-20T01:50:05.387Z,100855.15
2022-12-20T01:54:48.380Z,100846.75
2022-12-20T01:59:31.452Z,100833.14
2022-12-20T02:04:15.508Z,100828.42
2022-12-20T02:08:58.546Z,100818.09
2022-12-20T02:13:41.641Z,100816.17
2022-12-20T02:18:24.662Z,100821.28
2022-12-20T02:23:07.615Z,100812.47
2022-12-20T02:27:50.603Z,100810.55
2022-12-20T02:32:33.861Z,100804.11
2022-12-20T02:37:16.836Z,100794.5
2022-12-20T02:41:59.821Z,100784.28
2022-12-20T02:46:42.818Z,100776.59
2022-12-20T02:51:25.835Z,100763.97
2022-12-20T02:56:09.214Z,100778.09
2022-12-20T03:00:52.192Z,100770.63
2022-12-20T03:05:35.238Z,100768.3
2022-12-20T03:10:18.171Z,100758.63
2022-12-20T03:15:01.155Z,100757.81
2022-12-20T03:19:44.133Z,100751.77
2022-12-20T03:24:27.187Z,100764.24
2022-12-20T03:29:10.162Z,100761.31
2022-12-20T03:33:53.148Z,100762.38
2022-12-20T03:38:36.159Z,100759.61
2022-12-20T03:43:19.227Z,100756.22
2022-12-20T03:48:02.182Z,100765.62
2022-12-20T03:52:45.218Z,100757.92
2022-12-20T03:57:28.249Z,100753.69
2022-12-20T04:02:11.601Z,100752.16
2022-12-20T04:06:54.839Z,100748.91
2022-12-20T04:11:37.845Z,100760.88
2022-12-20T04:16:21.009Z,100754.56
2022-12-20T04:21:04.183Z,100767.59
2022-12-20T04:25:47.173Z,100763.45
2022-12-20T04:30:31.451Z,100768.07
2022-12-20T04:35:15.604Z,100762.02
2022-12-20T04:39:59.082Z,100770.7
2022-12-20T04:44:42.089Z,100786.38
2022-12-20T04:49:26.277Z,100777.41
2022-12-20T04:54:09.420Z,100773.34
2022-12-20T04:58:52.468Z,100763.09
2022-12-20T05:03:35.558Z,100757.09
2022-12-20T05:08:18.645Z,100752.38
2022-12-20T05:13:09.839Z,100741.38
2022-12-20T05:17:52.810Z,100755.39
2022-12-20T05:22:35.862Z,100761.94
2022-12-20T05:27:18.855Z,100761.39
2022-12-20T05:32:01.789Z,100774.46
2022-12-20T05:36:44.797Z,100761.66
2022-12-20T05:41:27.777Z,100762.59
2022-12-20T05:46:12.057Z,100762.81
2022-12-20T05:50:55.209Z,100741.23
2022-12-20T05:55:39.331Z,100734.3
2022-12-20T06:00:22.375Z,100742.33
2022-12-20T06:05:05.381Z,100737.09
2022-12-20T06:09:48.393Z,100754.18
2022-12-20T06:14:31.365Z,100739.19
2022-12-20T06:19:22.058Z,100736.63
2022-12-20T06:24:05.183Z,100741.91
2022-12-20T06:28:48.154Z,100739.22
2022-12-20T06:33:31.133Z,100746.53
2022-12-20T06:38:14.129Z,100738.56
2022-12-20T06:42:57.090Z,100744.02
2022-12-20T06:47:40.221Z,100733.56
2022-12-20T06:52:23.236Z,100740.45
2022-12-20T06:57:07.972Z,100743.25
2022-12-20T07:01:51.473Z,100735.54
2022-12-20T07:06:34.868Z,100739.33
2022-12-20T07:11:17.967Z,100749.39
2022-12-20T07:16:01.188Z,100744.05
2022-12-20T07:20:44.686Z,100753.67
2022-12-20T07:25:28.732Z,100744.33
2022-12-20T07:30:11.818Z,100748.2
2022-12-20T07:34:54.895Z,100738.36
2022-12-20T07:39:38.030Z,100726.7
2022-12-20T07:44:21.022Z,100730.25
2022-12-20T07:49:06.272Z,100730.19
2022-12-20T07:53:49.272Z,100738.59
2022-12-20T07:58:32.269Z,100738.55
2022-12-20T08:03:15.826Z,100732.48
2022-12-20T08:08:00.725Z,100724.63
2022-12-20T08:12:43.737Z,100723.9
2022-12-20T08:17:26.739Z,100716.88
2022-12-20T08:22:09.797Z,100717.02
2022-12-20T08:26:52.808Z,100710.73
2022-12-20T08:31:35.901Z,100710.94
2022-12-20T08:36:19.409Z,100719.4
2022-12-20T08:41:02.460Z,100745.48
2022-12-20T08:45:45.679Z,100755.73
2022-12-20T08:50:28.762Z,100741.53
2022-12-20T08:55:14.171Z,100740.77
2022-12-20T08:59:57.135Z,100737.25
2022-12-20T09:04:40.271Z,100748.81
2022-12-20T09:09:23.476Z,100734.48
2022-12-20T09:14:06.427Z,100719.98
2022-12-20T09:18:49.466Z,100718.76
2022-12-20T09:23:32.545Z,100729.58
2022-12-20T09:28:15.540Z,100725.89
2022-12-20T09:33:11.218Z,100712.45
2022-12-20T09:37:54.204Z,100702.16
2022-12-20T09:42:37.207Z,100692.08
2022-12-20T09:47:20.267Z,100686.63
2022-12-20T09:52:03.376Z,100687.55
2022-12-20T09:56:46.414Z,100692.31
2022-12-20T10:01:39.364Z,100688.64
2022-12-20T10:06:23.106Z,100697.29
2022-12-20T10:11:06.526Z,100711.67
2022-12-20T10:15:49.683Z,100713.43
2022-12-20T10:20:32.944Z,100730.83
2022-12-20T10:25:16.049Z,100716.09
2022-12-20T10:29:59.096Z,100711.72
2022-12-20T10:34:49.405Z,100697.5
2022-12-20T10:39:32.374Z,100698.47
2022-12-20T10:44:15.478Z,100689.25
2022-12-20T10:48:58.490Z,100678.55
2022-12-20T10:53:42.540Z,100665.09
2022-12-20T10:58:26.243Z,100668.89
2022-12-20T11:03:09.865Z,100650.53
2022-12-20T11:08:50.069Z,100650.78
2022-12-20T11:13:42.028Z,100646.88
2022-12-20T11:18:26.055Z,100646.2
2022-12-20T11:23:09.183Z,100636.13
2022-12-20T11:27:52.154Z,100643.91
2022-12-20T11:32:35.168Z,100640.81
2022-12-20T11:37:18.312Z,100635.08
2022-12-20T11:42:01.292Z,100616.52
2022-12-20T11:46:44.429Z,100624.53
2022-12-20T11:51:28.387Z,100621.23
2022-12-20T11:56:11.467Z,100623.45
2022-12-20T12:00:54.675Z,100624.77
2022-12-20T12:05:38.496Z,100630.05
2022-12-20T12:10:21.734Z,100631.56
2022-12-20T12:15:04.712Z,100628.78
2022-12-20T12:19:53.375Z,100632.24
2022-12-20T12:24:36.344Z,100635.73
2022-12-20T12:29:19.625Z,100622.56
2022-12-20T12:34:03.158Z,100614.38
2022-12-20T12:38:46.217Z,100615.97
2022-12-20T12:43:29.313Z,100626.4
2022-12-20T12:48:12.311Z,100609.08
2022-12-20T12:52:55.337Z,100600.56
2022-12-20T12:57:38.354Z,100588.45
2022-12-20T13:02:22.467Z,100589.78
2022-12-20T13:07:06.144Z,100583.95
2022-12-20T13:12:01.243Z,100584.28
2022-12-20T13:17:26.207Z,100581.34
2022-12-20T13:22:09.554Z,100578.09
2022-12-20T13:26:52.513Z,100576.09
2022-12-20T13:31:35.633Z,100568.59
2022-12-20T13:36:18.627Z,100574.58
2022-12-20T13:41:01.660Z,100568.22
2022-12-20T13:45:44.916Z,100537.87
2022-12-20T13:50:28.072Z,100526.33
2022-12-20T13:55:11.110Z,100530.72
2022-12-20T13:59:56.272Z,100533.53
2022-12-20T14:04:48.704Z,100532.19
2022-12-20T14:09:31.841Z,100527.94
2022-12-20T14:14:14.929Z,100510.78
2022-12-20T14:18:58.392Z,100513.73
2022-12-20T14:23:41.421Z,100519.08
2022-12-20T14:28:28.654Z,100503.58
2022-12-20T14:33:11.700Z,100505.85
2022-12-20T14:37:54.727Z,100510.71
2022-12-20T14:42:37.808Z,100508.34
2022-12-20T14:47:20.833Z,100507.67
2022-12-20T14:52:03.899Z,100507.02
2022-12-20T14:56:46.977Z,100509.56
2022-12-20T15:01:30.481Z,100482.78
2022-12-20T15:06:13.937Z,100489.09
2022-12-20T15:10:56.935Z,100457.88
2022-12-20T15:15:41.327Z,100457.44
2022-12-20T15:20:24.431Z,100465.16
2022-12-20T15:25:07.477Z,100461.95
2022-12-20T15:29:50.551Z,100457.29
2022-12-20T15:34:33.683Z,100459.31
2022-12-20T15:39:17.010Z,100454.44
2022-12-20T15:44:00.032Z,100469.01
2022-12-20T15:48:43.051Z,100464.14
2022-12-20T15:53:28.981Z,100462.28
2022-12-20T15:58:12.085Z,100444.52
2022-12-20T16:02:55.603Z,100428.61
2022-12-20T16:07:38.974Z,100423.77
2022-12-20T16:12:22.017Z,100425.22
2022-12-20T16:17:05.057Z,100425.13
2022-12-20T16:21:48.081Z,100441.83
2022-12-20T16:26:31.175Z,100454.75
2022-12-20T16:31:14.275Z,100440.87
2022-12-20T16:35:57.449Z,100436.9
2022-12-20T16:40:40.513Z,100436.36
2022-12-20T16:45:23.720Z,100450.72
2022-12-20T16:50:06.718Z,100456.75
2022-12-20T16:54:49.972Z,100463.73
2022-12-20T16:59:32.949Z,100449.53
2022-12-20T17:04:16.004Z,100445.44
2022-12-20T17:08:59.020Z,100439.31
2022-12-20T17:13:42.002Z,100430.47
2022-12-20T17:18:25.078Z,100436.14
2022-12-20T17:28:26.369Z,100440.44
2022-12-20T17:33:09.742Z,100428.09
2022-12-20T17:37:52.849Z,100451.57
2022-12-20T17:42:38.848Z,100446.77
2022-12-20T17:47:21.841Z,100444.31
2022-12-20T17:52:04.938Z,100436.11
2022-12-20T17:56:47.987Z,100425.13
2022-12-20T18:01:31.406Z,100425.39
2022-12-20T18:06:35.762Z,100435.94
2022-12-20T18:11:18.771Z,100421.83
2022-12-20T18:16:22.851Z,100426.81
2022-12-20T18:21:05.951Z,100419.78
2022-12-20T18:25:49.150Z,100416.97
2022-12-20T18:30:32.203Z,100412.02
2022-12-20T18:35:15.330Z,100396.38
2022-12-20T18:39:58.404Z,100394.97
2022-12-20T18:44:41.544Z,100399.59
2022-12-20T18:49:24.632Z,100383.67
2022-12-20T18:54:07.735Z,100371.91
2022-12-20T18:58:50.779Z,100353.16
2022-12-20T19:03:34.105Z,100353.09
2022-12-20T19:08:17.492Z,100349.97
2022-12-20T19:13:06.729Z,100367.73
2022-12-20T19:17:49.760Z,100362.12
2022-12-20T19:22:35.611Z,100359.84
2022-12-20T19:27:18.664Z,100356.92
2022-12-20T19:32:01.746Z,100347.55
2022-12-20T19:36:44.851Z,100336.03
2022-12-20T19:41:27.911Z,100346.97
2022-12-20T19:46:11.216Z,100363.84
2022-12-20T19:50:54.420Z,100351.79
2022-12-20T19:55:37.577Z,100327.1
2022-12-20T20:00:20.641Z,100318.91
2022-12-20T20:05:04.656Z,100324.62
2022-12-20T20:09:56.777Z,100321.53
2022-12-20T20:14:39.855Z,100337.17
2022-12-20T20:19:23.334Z,100315.94
2022-12-20T20:24:06.559Z,100283.73
2022-12-20T20:28:49.695Z,100281.36
2022-12-20T20:33:34.430Z,100276.52
2022-12-20T20:38:17.985Z,100293.52
2022-12-20T20:43:01.144Z,100302.61
2022-12-20T20:47:44.560Z,100299.69
2022-12-20T20:52:29.937Z,100272.95
2022-12-20T20:57:16.151Z,100274.7
2022-12-20T21:01:59.445Z,100282.9
2022-12-20T21:06:43.505Z,100271.11
2022-12-20T21:11:30.140Z,100277.55
2022-12-20T21:16:13.826Z,100276.53
2022-12-20T21:20:57.218Z,100278.79
2022-12-20T21:25:41.898Z,100257.48
2022-12-20T21:30:26.141Z,100250.88
2022-12-20T21:35:09.219Z,100251.84
2022-12-20T21:39:52.201Z,100258.06
2022-12-20T21:44:35.253Z,100269.36
2022-12-20T21:49:18.414Z,100261.62
2022-12-20T21:54:01.489Z,100241.65
2022-12-20T21:58:45.480Z,100225.3
2022-12-20T22:03:28.698Z,100224.28
2022-12-20T22:08:12.147Z,100214.95
2022-12-20T22:12:56.480Z,100225.08
2022-12-20T22:17:39.669Z,100216.41
2022-12-20T22:22:22.749Z,100207.3
2022-12-20T22:27:12.309Z,100204.62
2022-12-20T22:31:55.753Z,100196.44
2022-12-20T22:36:38.969Z,100204.06
2022-12-20T22:41:24.873Z,100201.34
2022-12-20T22:46:30.932Z,100199.23
2022-12-20T22:51:14.193Z,100192.27
2022-12-20T22:55:57.385Z,100190.19
2022-12-20T23:00:40.624Z,100169.95
2022-12-20T23:05:23.736Z,100153.47
2022-12-20T23:10:06.773Z,100157.23
2022-12-20T23:14:49.999Z,100155.29
2022-12-20T23:19:33.047Z,100157.89
2022-12-20T23:24:16.147Z,100159.05
2022-12-20T23:28:59.188Z,100171
2022-12-20T23:33:42.183Z,100169.25
2022-12-20T23:38:25.333Z,100157.42
2022-12-20T23:43:08.362Z,100150.31
2022-12-20T23:47:51.378Z,100155.11
2022-12-20T23:52:36.885Z,100177.97
2022-12-20T23:57:25.039Z,100174.34
